Time;durP1;ratioP1;P1;durP2;ratioP2;P2;SDS_P1;SDS_P2;PMS_P1;PMS_P2;Temp;Humidity;BMP_temperature;BMP_pressure;BME280_temperature;BME280_humidity;BME280_pressure;Samples;Min_cycle;Max_cycle;Signal;HPM_P1;HPM_P2
2022/05/07 00:01:24;;;;;;;15.02;10.10;;;;;;;11.48;69.47;102204.38;5070432;28;20030;-69
2022/05/07 00:03:52;;;;;;;14.63;11.18;;;;;;;11.45;69.58;102204.41;5063693;28;20099;-71
2022/05/07 00:06:19;;;;;;;16.40;11.63;;;;;;;11.42;69.48;102205.34;5071829;28;20041;-71
2022/05/07 00:08:46;;;;;;;14.95;11.25;;;;;;;11.39;69.49;102199.22;5073376;28;20156;-71
2022/05/07 00:11:15;;;;;;;16.77;11.35;;;;;;;11.36;69.65;102200.09;5070652;28;20044;-69
2022/05/07 00:13:42;;;;;;;16.50;11.35;;;;;;;11.32;69.48;102195.78;5072030;28;20090;-69
2022/05/07 00:18:55;;;;;;;19.35;12.20;;;;;;;11.25;69.81;102194.97;5073688;28;20529;-69
2022/05/07 00:21:22;;;;;;;16.65;11.27;;;;;;;11.24;70.05;102192.34;5071400;28;20148;-68
2022/05/07 00:23:49;;;;;;;19.10;11.98;;;;;;;11.24;70.51;102189.72;5071492;28;20507;-69
2022/05/07 00:26:16;;;;;;;18.52;12.48;;;;;;;11.24;70.53;102192.34;5071044;28;20077;-67
2022/05/07 00:28:45;;;;;;;20.67;12.60;;;;;;;11.23;70.83;102202.03;5072362;28;20045;-68
2022/05/07 00:31:12;;;;;;;18.05;12.38;;;;;;;11.24;71.40;102192.34;5072159;28;20847;-68
2022/05/07 00:33:39;;;;;;;15.95;12.25;;;;;;;11.25;71.16;102194.97;5061984;28;20073;-67
2022/05/07 00:36:08;;;;;;;16.52;11.82;;;;;;;11.24;71.17;102193.22;5064415;28;20041;-68
2022/05/07 00:38:35;;;;;;;15.57;11.70;;;;;;;11.23;70.70;102193.25;5066946;28;20048;-68
2022/05/07 00:41:02;;;;;;;17.55;12.35;;;;;;;11.19;70.88;102188.00;5070361;28;20060;-68
2022/05/07 00:43:37;;;;;;;18.85;12.45;;;;;;;11.17;70.98;102189.78;5071498;28;20133;-67
2022/05/07 00:46:05;;;;;;;15.30;11.57;;;;;;;11.13;70.95;102187.19;5086883;28;20557;-69
2022/05/07 00:48:33;;;;;;;19.13;12.65;;;;;;;11.12;71.06;102191.59;5071864;28;20044;-67
2022/05/07 00:54:08;;;;;;;20.23;13.27;;;;;;;11.06;71.21;102182.88;4995568;28;20150;-69
2022/05/07 00:56:37;;;;;;;20.48;12.30;;;;;;;11.06;71.33;102182.88;5061052;28;20638;-69
2022/05/07 00:59:07;;;;;;;19.25;12.23;;;;;;;11.02;71.23;102180.25;5069998;28;20049;-68
2022/05/07 01:01:35;;;;;;;17.77;12.93;;;;;;;11.01;71.52;102177.66;5063949;28;20519;-68
2022/05/07 01:04:06;;;;;;;17.55;13.40;;;;;;;10.98;71.50;102178.56;5070261;28;20044;-70
2022/05/07 01:06:35;;;;;;;18.83;13.02;;;;;;;10.95;71.69;102178.59;5069904;28;20060;-70
2022/05/07 01:09:07;;;;;;;19.60;12.77;;;;;;;10.94;71.82;102186.50;5070250;28;20045;-69
2022/05/07 01:11:35;;;;;;;15.88;12.52;;;;;;;10.93;72.19;102180.34;5070093;28;20071;-71
2022/05/07 01:14:03;;;;;;;15.27;10.82;;;;;;;10.92;71.96;102173.31;5069776;28;20041;-70
2022/05/07 01:16:33;;;;;;;17.70;11.65;;;;;;;10.92;72.04;102169.84;5085672;28;20697;-71
2022/05/07 01:19:01;;;;;;;16.25;11.48;;;;;;;10.92;72.13;102169.84;5068848;28;20154;-71
2022/05/07 01:21:28;;;;;;;18.73;12.35;;;;;;;10.90;71.97;102174.25;5066325;28;20115;-71
2022/05/07 01:23:58;;;;;;;15.48;11.90;;;;;;;10.91;72.31;102170.72;5071210;28;20799;-71
2022/05/07 01:26:30;;;;;;;16.35;12.55;;;;;;;10.91;72.07;102170.72;5060755;28;20119;-71
2022/05/07 01:29:05;;;;;;;19.15;12.20;;;;;;;10.91;72.15;102165.44;5066609;28;20499;-70
2022/05/07 01:31:37;;;;;;;16.48;12.05;;;;;;;10.91;72.29;102171.56;5082183;28;20044;-70
2022/05/07 01:34:05;;;;;;;17.58;12.18;;;;;;;10.92;72.31;102167.19;5087335;28;20154;-69
2022/05/07 01:36:36;;;;;;;17.35;12.63;;;;;;;10.92;72.57;102168.06;5079472;28;20124;-69
2022/05/07 01:39:08;;;;;;;17.55;12.35;;;;;;;10.91;72.66;102163.66;5070442;28;20116;-69
2022/05/07 01:41:36;;;;;;;21.02;11.88;;;;;;;10.92;72.55;102169.84;5069802;28;20045;-70
2022/05/07 01:44:05;;;;;;;15.77;12.63;;;;;;;10.93;72.56;102169.81;5068912;28;20041;-70
2022/05/07 01:49:23;;;;;;;18.65;11.18;;;;;;;10.94;72.36;102155.72;5064112;28;20487;-70
2022/05/07 01:51:51;;;;;;;17.08;13.25;;;;;;;10.96;72.45;102163.59;5070575;28;20103;-69
2022/05/07 01:54:18;;;;;;;17.70;12.68;;;;;;;10.95;72.30;102159.22;5077638;28;20095;-69
2022/05/07 01:56:48;;;;;;;17.02;12.52;;;;;;;10.95;72.36;102161.84;5069052;28;20052;-68
2022/05/07 01:59:15;;;;;;;20.40;12.85;;;;;;;10.93;72.43;102164.53;5068931;28;20048;-69
2022/05/07 02:01:42;;;;;;;20.35;13.05;;;;;;;10.92;72.70;102160.13;5063888;28;20514;-69
2022/05/07 02:04:10;;;;;;;16.67;11.98;;;;;;;10.92;72.63;102156.63;5070589;28;20409;-69
2022/05/07 02:06:37;;;;;;;16.33;12.30;;;;;;;10.90;72.47;102159.28;5070941;28;20044;-70
2022/05/07 02:09:07;;;;;;;19.77;12.55;;;;;;;10.88;72.34;102161.94;5069636;28;20045;-68
2022/05/07 02:11:35;;;;;;;18.30;12.70;;;;;;;10.88;72.54;102161.06;5064282;28;20049;-69
2022/05/07 02:14:04;;;;;;;16.60;12.60;;;;;;;10.86;72.53;102157.56;5069428;28;20084;-70
2022/05/07 02:16:31;;;;;;;18.20;13.10;;;;;;;10.83;72.78;102152.31;5070671;28;20060;-70
2022/05/07 02:18:59;;;;;;;18.13;12.77;;;;;;;10.81;72.74;102156.72;5071297;28;20049;-70
2022/05/07 02:21:26;;;;;;;18.02;13.27;;;;;;;10.79;72.48;102156.75;5066081;28;20091;-69
2022/05/07 02:23:54;;;;;;;19.48;12.68;;;;;;;10.80;72.58;102145.31;5069585;28;20041;-69
2022/05/07 02:26:21;;;;;;;18.50;12.38;;;;;;;10.80;72.88;102149.72;5082891;28;20064;-71
2022/05/07 02:28:50;;;;;;;17.52;12.45;;;;;;;10.79;72.86;102156.75;5070404;28;20107;-71
2022/05/07 02:31:18;;;;;;;22.17;13.80;;;;;;;10.79;72.92;102151.47;5068405;28;20052;-69
2022/05/07 02:33:48;;;;;;;17.85;12.40;;;;;;;10.78;73.03;102149.72;5086497;28;20041;-70
2022/05/07 02:36:16;;;;;;;18.90;13.18;;;;;;;10.77;73.00;102149.75;5069626;28;20496;-70
2022/05/07 02:38:44;;;;;;;19.23;13.15;;;;;;;10.76;73.16;102146.22;5069243;28;20049;-71
2022/05/07 02:43:59;;;;;;;18.35;12.80;;;;;;;10.71;73.29;102148.91;5064561;28;20449;-71
2022/05/07 02:46:26;;;;;;;17.30;12.77;;;;;;;10.69;72.93;102139.28;5073682;28;20041;-70
2022/05/07 02:48:54;;;;;;;16.45;12.52;;;;;;;10.67;73.38;102147.22;5070355;28;20040;-69
2022/05/07 02:51:21;;;;;;;18.70;12.85;;;;;;;10.65;73.48;102145.47;5071617;28;20128;-70
2022/05/07 02:53:48;;;;;;;20.15;14.00;;;;;;;10.62;73.68;102138.47;5072143;28;20041;-69
2022/05/07 02:56:15;;;;;;;20.10;14.23;;;;;;;10.61;73.78;102139.34;5072664;28;20033;-69
2022/05/07 02:58:45;;;;;;;17.92;13.57;;;;;;;10.58;73.98;102136.75;5068266;28;20057;-70
2022/05/07 03:01:12;;;;;;;18.80;13.85;;;;;;;10.56;74.09;102131.47;5073747;28;20045;-69
2022/05/07 03:03:41;;;;;;;21.60;14.73;;;;;;;10.53;74.14;102128.88;5074336;28;20515;-69
2022/05/07 03:06:08;;;;;;;21.38;15.13;;;;;;;10.49;73.95;102135.06;5073895;28;20041;-69
2022/05/07 03:08:36;;;;;;;22.85;14.30;;;;;;;10.48;73.86;102133.31;5071352;28;20052;-69
2022/05/07 03:11:04;;;;;;;22.40;14.43;;;;;;;10.46;74.00;102136.88;5068587;28;20536;-70
2022/05/07 03:13:31;;;;;;;20.23;14.63;;;;;;;10.42;73.88;102128.13;5062146;28;20041;-70
2022/05/07 03:15:59;;;;;;;21.95;16.00;;;;;;;10.38;73.94;102131.66;5073560;28;20041;-69
2022/05/07 03:18:26;;;;;;;22.40;16.23;;;;;;;10.35;74.22;102126.38;5074589;28;20499;-70
2022/05/07 03:20:54;;;;;;;22.35;15.38;;;;;;;10.34;74.18;102133.41;5072752;28;20136;-68
2022/05/07 03:23:22;;;;;;;23.52;15.80;;;;;;;10.33;74.16;102130.78;5086252;28;20124;-69
2022/05/07 03:25:59;;;;;;;24.30;16.92;;;;;;;10.34;74.50;102130.78;5090147;28;20099;-68
2022/05/07 03:28:26;;;;;;;24.67;16.65;;;;;;;10.34;74.56;102128.16;5071651;28;20037;-68
2022/05/07 03:30:53;;;;;;;21.88;15.35;;;;;;;10.33;74.62;102131.66;5072129;28;20037;-68
2022/05/07 03:33:21;;;;;;;26.95;17.95;;;;;;;10.33;74.63;102131.66;5071320;28;20044;-68
2022/05/07 03:35:48;;;;;;;22.73;15.45;;;;;;;10.35;74.72;102140.44;5073595;28;20041;-69
2022/05/07 03:38:15;;;;;;;22.70;16.63;;;;;;;10.35;74.75;102129.91;5078205;28;20079;-69
2022/05/07 03:40:49;;;;;;;23.13;15.88;;;;;;;10.35;74.77;102127.25;5067241;28;20045;-69
2022/05/07 03:43:19;;;;;;;21.67;16.08;;;;;;;10.37;75.00;102138.72;5059747;28;20041;-69
2022/05/07 03:45:46;;;;;;;27.40;16.38;;;;;;;10.36;74.97;102129.00;5070957;28;20043;-68
2022/05/07 03:48:14;;;;;;;26.10;17.55;;;;;;;10.37;75.02;102130.78;5071466;28;20752;-69
2022/05/07 03:50:47;;;;;;;22.05;16.88;;;;;;;10.37;75.08;102130.78;5065991;28;20045;-68
2022/05/07 03:53:29;;;;;;;23.55;16.42;;;;;;;10.38;74.76;102126.38;5067852;28;20041;-67
2022/05/07 03:56:08;;;;;;;23.48;17.48;;;;;;;10.38;74.66;102132.50;5071003;28;20033;-67
2022/05/07 03:58:37;;;;;;;26.48;18.13;;;;;;;10.40;74.67;102130.75;5066557;28;20855;-67
2022/05/07 04:01:15;;;;;;;24.40;17.52;;;;;;;10.43;74.74;102134.25;5088256;28;20055;-67
2022/05/07 04:03:42;;;;;;;22.95;16.33;;;;;;;10.43;75.20;102135.09;5073120;28;20449;-66
2022/05/07 04:06:10;;;;;;;25.65;17.85;;;;;;;10.44;74.84;102139.50;5089143;28;20110;-67
2022/05/07 04:08:37;;;;;;;25.83;18.02;;;;;;;10.43;74.79;102135.09;5070885;28;20478;-66
2022/05/07 04:11:06;;;;;;;22.92;16.67;;;;;;;10.45;74.93;102138.63;5088544;28;20041;-65
2022/05/07 04:13:33;;;;;;;21.42;17.13;;;;;;;10.46;74.65;102140.38;5070910;28;20564;-66
2022/05/07 04:16:04;;;;;;;22.85;17.23;;;;;;;10.49;74.59;102142.09;5069575;28;20043;-68
2022/05/07 04:18:34;;;;;;;23.88;17.10;;;;;;;10.51;74.59;102130.66;5072420;28;20072;-68
2022/05/07 04:21:07;;;;;;;23.17;17.77;;;;;;;10.54;74.36;102135.03;5073394;28;20790;-68
2022/05/07 04:23:35;;;;;;;25.58;17.63;;;;;;;10.57;74.58;102143.78;5067669;28;20045;-68
2022/05/07 04:26:03;;;;;;;26.85;17.58;;;;;;;10.61;74.59;102141.13;5073247;28;20434;-68
2022/05/07 04:28:35;;;;;;;26.13;18.42;;;;;;;10.62;74.40;102145.50;5070804;28;20045;-68
2022/05/07 04:31:02;;;;;;;21.58;16.10;;;;;;;10.65;74.49;102148.09;5069015;28;20482;-68
2022/05/07 04:33:33;;;;;;;26.05;17.50;;;;;;;10.69;74.52;102145.41;5065301;28;20051;-69
2022/05/07 04:36:06;;;;;;;22.85;17.58;;;;;;;10.73;74.61;102146.28;5076973;28;20037;-68
2022/05/07 04:38:37;;;;;;;23.92;17.17;;;;;;;10.77;74.45;102142.72;5076140;28;20045;-67
2022/05/07 04:41:04;;;;;;;26.45;17.48;;;;;;;10.81;74.39;102149.72;5067649;28;20569;-69
2022/05/07 04:43:33;;;;;;;26.08;17.38;;;;;;;10.86;74.39;102152.28;5058060;28;20041;-69
2022/05/07 04:46:01;;;;;;;22.88;17.70;;;;;;;10.93;74.15;102147.84;5076427;28;20050;-67
2022/05/07 04:48:30;;;;;;;25.13;17.92;;;;;;;10.98;74.28;102146.00;5053974;28;20124;-69
2022/05/07 04:51:01;;;;;;;31.17;18.58;;;;;;;11.05;74.29;102142.41;5060970;28;20043;-69
2022/05/07 04:54:09;;;;;;;24.48;17.48;;;;;;;11.13;74.06;102143.22;5070946;28;20794;-69
2022/05/07 04:56:36;;;;;;;26.88;18.38;;;;;;;11.23;74.13;102137.81;5087477;28;20511;-69
2022/05/07 04:59:05;;;;;;;27.30;19.42;;;;;;;11.30;73.79;102139.47;5071195;28;20045;-70
2022/05/07 05:01:43;;;;;;;24.40;17.50;;;;;;;11.39;73.70;102144.63;5069916;28;20110;-68
2022/05/07 05:04:13;;;;;;;23.13;18.02;;;;;;;11.48;73.91;102143.66;5069267;28;20543;-69
2022/05/07 05:06:41;;;;;;;26.23;18.05;;;;;;;11.57;73.82;102145.28;5071068;28;20049;-69
2022/05/07 05:09:14;;;;;;;23.58;16.48;;;;;;;11.64;73.79;102146.97;5086637;28;20053;-70
2022/05/07 05:11:48;;;;;;;24.10;18.13;;;;;;;11.74;73.60;102153.88;5069390;28;20095;-70
2022/05/07 05:17:03;;;;;;;26.00;17.95;;;;;;;11.90;73.63;102151.88;5068845;28;20442;-65
2022/05/07 05:19:31;;;;;;;25.08;17.75;;;;;;;11.98;73.51;102154.41;5062261;28;20049;-66
2022/05/07 05:22:03;;;;;;;27.65;19.05;;;;;;;12.04;73.23;102159.63;5069192;28;20045;-65
2022/05/07 05:24:33;;;;;;;24.15;17.27;;;;;;;12.13;73.14;102169.16;5062280;28;20052;-65
2022/05/07 05:27:00;;;;;;;23.17;17.10;;;;;;;12.21;72.91;102169.91;5063915;28;20049;-69
2022/05/07 05:29:35;;;;;;;28.48;19.60;;;;;;;12.30;72.98;102173.31;5083890;28;20044;-68
2022/05/07 05:32:07;;;;;;;26.70;18.77;;;;;;;-147.05;100.00;58721.66;5068967;28;20045;-69
2022/05/07 05:34:37;;;;;;;27.27;19.27;;;;;;;-147.05;100.00;58721.66;5055169;28;20518;-68
2022/05/07 05:37:05;;;;;;;25.00;18.52;;;;;;;12.58;72.85;102182.53;5066933;28;20045;-69
2022/05/07 05:39:40;;;;;;;30.05;20.33;;;;;;;12.68;72.91;102182.38;5065570;28;20040;-68
2022/05/07 05:42:08;;;;;;;28.25;21.45;;;;;;;12.77;72.44;102181.34;5071844;28;20057;-67
2022/05/07 05:44:42;;;;;;;26.02;19.58;;;;;;;12.89;72.33;102181.97;5083956;28;20037;-68
2022/05/07 05:47:14;;;;;;;29.30;21.10;;;;;;;13.04;72.33;102180.81;5056587;28;20033;-68
2022/05/07 05:49:41;;;;;;;28.25;19.95;;;;;;;13.18;71.66;102188.47;5050706;28;20049;-68
2022/05/07 05:52:09;;;;;;;28.73;20.50;;;;;;;13.35;72.02;102189.91;5060774;28;20037;-70
2022/05/07 05:54:37;;;;;;;30.20;20.50;;;;;;;13.45;71.96;102194.16;5050191;28;20041;-68
2022/05/07 05:57:06;;;;;;;27.70;20.08;;;;;;;13.46;71.90;102192.38;5059230;28;20073;-69
2022/05/07 05:59:33;;;;;;;26.08;19.98;;;;;;;13.43;71.78;102190.66;5061540;28;20057;-71
2022/05/07 06:02:01;;;;;;;34.40;23.90;;;;;;;13.41;71.51;102196.88;5073813;28;20041;-70
2022/05/07 06:04:56;;;;;;;30.52;24.55;;;;;;;13.49;71.04;102187.00;5054654;28;20061;-69
2022/05/07 06:07:26;;;;;;;30.88;23.70;;;;;;;13.63;70.92;102195.53;5049749;28;20073;-70
2022/05/07 06:09:58;;;;;;;33.60;25.23;;;;;;;13.78;70.44;102198.78;5054009;28;20075;-71
2022/05/07 06:12:28;;;;;;;33.03;25.35;;;;;;;13.89;69.96;102206.47;5053950;28;20117;-69
2022/05/07 06:14:55;;;;;;;38.90;25.52;;;;;;;13.99;69.88;102194.75;5049328;28;20137;-69
2022/05/07 06:17:27;;;;;;;31.50;22.80;;;;;;;14.07;69.51;102192.78;5053579;28;20483;-71
2022/05/07 06:19:55;;;;;;;32.13;23.42;;;;;;;14.19;69.49;102196.06;5054155;28;20111;-70
2022/05/07 06:22:22;;;;;;;36.45;24.95;;;;;;;14.32;69.09;102194.88;5058727;28;20934;-69
2022/05/07 06:28:05;;;;;;;35.92;25.73;;;;;;;14.62;68.45;102208.28;5052099;28;19936;-70
2022/05/07 06:30:39;;;;;;;35.42;25.60;;;;;;;14.80;67.68;102214.03;5058130;28;20040;-68
2022/05/07 06:33:10;;;;;;;40.03;26.33;;;;;;;14.91;67.17;102214.63;5055700;28;20845;-70
2022/05/07 06:35:45;;;;;;;34.80;26.92;;;;;;;15.01;67.26;102213.47;5054830;28;20041;-69
2022/05/07 06:38:17;;;;;;;37.72;27.38;;;;;;;15.04;66.75;102213.41;5059750;28;20174;-66
2022/05/07 06:40:50;;;;;;;34.95;27.33;;;;;;;15.14;66.61;102218.44;5049970;28;20095;-68
2022/05/07 06:43:18;;;;;;;34.63;27.23;;;;;;;15.30;66.24;102214.44;5049922;28;20541;-68
2022/05/07 06:46:03;;;;;;;38.03;28.10;;;;;;;15.52;65.98;102208.50;5062618;28;20036;-67
2022/05/07 06:48:34;;;;;;;35.03;26.00;;;;;;;15.73;65.08;102216.75;5063106;28;20537;-68
2022/05/07 06:51:08;;;;;;;39.55;27.92;;;;;;;15.90;63.60;102217.16;5052906;28;20135;-67
2022/05/07 06:53:36;;;;;;;37.17;28.17;;;;;;;15.95;63.65;102203.69;5054002;28;20483;-68
2022/05/07 06:56:03;;;;;;;38.97;27.98;;;;;;;16.03;63.38;102206.97;5057435;28;20087;-67
2022/05/07 06:58:34;;;;;;;43.22;29.67;;;;;;;16.10;63.22;102210.31;5066665;28;20048;-69
2022/05/07 07:01:03;;;;;;;42.30;29.58;;;;;;;16.24;62.82;102201.91;5055749;28;20045;-70
2022/05/07 07:03:31;;;;;;;40.13;26.90;;;;;;;16.33;62.24;102206.06;5063010;28;20132;-68
2022/05/07 07:06:00;;;;;;;38.83;26.70;;;;;;;16.35;61.79;102210.41;5056871;28;20580;-70
2022/05/07 07:08:31;;;;;;;38.72;26.77;;;;;;;16.39;61.54;102197.84;5059370;28;20040;-70
2022/05/07 07:10:59;;;;;;;36.17;26.10;;;;;;;16.42;61.23;102201.31;5056747;28;20120;-70
2022/05/07 07:13:26;;;;;;;35.95;26.27;;;;;;;16.54;61.19;102204.47;5067104;28;20045;-69
2022/05/07 07:15:53;;;;;;;36.03;25.67;;;;;;;16.63;60.95;102204.19;5083060;28;20530;-70
2022/05/07 07:18:20;;;;;;;34.03;25.50;;;;;;;16.74;60.19;102203.78;5063485;28;20037;-69
2022/05/07 07:20:49;;;;;;;30.75;25.25;;;;;;;16.85;60.03;102206.06;5071412;28;20487;-68
2022/05/07 07:23:17;;;;;;;32.45;23.70;;;;;;;17.00;59.54;102208.22;5064482;28;20041;-71
2022/05/07 07:25:45;;;;;;;28.08;23.33;;;;;;;17.09;58.53;102201.72;5069549;28;20134;-67
2022/05/07 07:28:12;;;;;;;28.63;21.50;;;;;;;17.23;58.67;102206.53;5066427;28;20444;-70
2022/05/07 07:30:40;;;;;;;29.65;21.90;;;;;;;17.39;58.56;102204.19;5070701;28;20486;-69
2022/05/07 07:33:07;;;;;;;30.17;20.73;;;;;;;17.57;57.53;102207.06;5069794;28;20049;-69
2022/05/07 07:35:36;;;;;;;25.25;17.63;;;;;;;17.69;55.73;102202.13;5063425;28;20048;-68
2022/05/07 07:38:03;;;;;;;23.17;18.15;;;;;;;17.80;55.53;102201.72;5069753;28;20825;-69
2022/05/07 07:40:31;;;;;;;24.70;17.52;;;;;;;17.95;55.50;102208.25;5070026;28;20037;-69
2022/05/07 07:42:59;;;;;;;24.85;17.27;;;;;;;18.07;54.11;102211.34;5071137;28;20450;-69
2022/05/07 07:48:13;;;;;;;22.42;17.42;;;;;;;18.34;53.63;102208.50;5058983;28;20593;-69
2022/05/07 07:50:41;;;;;;;24.73;17.38;;;;;;;18.47;52.79;102210.59;5061525;28;20083;-70
2022/05/07 07:53:11;;;;;;;22.88;16.52;;;;;;;18.55;52.87;102209.41;5056813;28;20053;-69
2022/05/07 07:55:39;;;;;;;22.27;16.23;;;;;;;18.56;52.92;102214.69;5065311;28;20045;-67
2022/05/07 07:58:09;;;;;;;26.13;14.95;;;;;;;18.61;53.67;102206.50;5059458;28;20059;-70
2022/05/07 08:00:38;;;;;;;31.45;14.40;;;;;;;18.69;51.27;102209.69;5063538;28;20050;-69
2022/05/07 08:03:13;;;;;;;18.88;14.63;;;;;;;18.78;50.68;102209.28;5063391;28;20115;-69
2022/05/07 08:05:43;;;;;;;19.75;14.20;;;;;;;18.93;50.75;102210.47;5064702;28;20694;-69
2022/05/07 08:13:47;;;;;;;20.00;14.13;;;;;;;19.69;49.31;102206.13;5053170;28;20087;-70
2022/05/07 08:16:17;;;;;;;23.15;14.15;;;;;;;19.95;48.25;102206.75;5056055;28;20048;-70
2022/05/07 08:18:52;;;;;;;20.65;13.38;;;;;;;20.19;47.86;102204.69;5063831;28;20044;-68
2022/05/07 08:21:19;;;;;;;21.10;13.80;;;;;;;20.51;48.33;102212.03;5059110;28;20042;-70
2022/05/07 08:23:47;;;;;;;19.45;14.95;;;;;;;20.85;46.55;102208.53;5053059;28;20041;-70
2022/05/07 08:26:15;;;;;;;22.65;13.80;;;;;;;21.14;46.07;102198.06;5060108;28;20049;-68
2022/05/07 08:28:43;;;;;;;22.65;13.50;;;;;;;21.36;45.21;102205.81;5063752;28;20036;-69
2022/05/07 08:31:11;;;;;;;17.40;13.57;;;;;;;21.60;44.14;102202.78;5062717;28;20408;-69
2022/05/07 08:33:41;;;;;;;21.25;14.27;;;;;;;21.80;44.93;102206.16;5059161;28;20482;-70
2022/05/07 08:36:11;;;;;;;20.52;13.63;;;;;;;21.91;43.33;102203.72;5051591;28;20064;-70
2022/05/07 08:38:42;;;;;;;18.23;12.75;;;;;;;21.80;44.62;102204.31;5066944;28;20039;-69
2022/05/07 08:41:11;;;;;;;18.90;13.90;;;;;;;21.76;44.11;102208.16;5066485;28;20064;-71
2022/05/07 08:43:42;;;;;;;21.13;13.45;;;;;;;21.69;45.04;102206.72;5064007;28;20049;-69
2022/05/07 08:46:13;;;;;;;21.35;14.70;;;;;;;21.69;45.00;102204.94;5062071;28;20056;-69
2022/05/07 08:48:43;;;;;;;19.42;14.93;;;;;;;21.56;44.70;102203.84;5068924;28;20129;-70
2022/05/07 08:51:15;;;;;;;20.92;14.13;;;;;;;21.46;44.84;102206.19;5051820;28;20043;-70
2022/05/07 08:53:49;;;;;;;23.73;14.70;;;;;;;21.33;44.34;102205.97;5069298;28;20487;-70
2022/05/07 08:56:17;;;;;;;;;;;;;;;21.12;44.08;102204.44;5067451;28;20096;-70
2022/05/07 08:58:52;;;;;;;24.17;15.38;;;;;;;20.99;45.13;102207.81;5066707;28;19963;-69
2022/05/07 09:01:21;;;;;;;61.08;16.65;;;;;;;20.93;44.73;102200.94;5065819;28;20091;-70
2022/05/07 09:03:50;;;;;;;25.02;14.65;;;;;;;20.89;44.12;102207.41;5065464;28;20045;-70
2022/05/07 09:06:24;;;;;;;23.73;15.13;;;;;;;20.90;45.22;102208.28;5068697;28;20080;-70
2022/05/07 09:08:55;;;;;;;20.58;14.50;;;;;;;21.08;45.37;102199.25;5058195;28;20044;-69
2022/05/07 09:11:23;;;;;;;26.02;15.70;;;;;;;21.29;45.10;102196.38;5048954;28;20064;-68
2022/05/07 09:14:04;;;;;;;23.23;15.38;;;;;;;21.47;44.33;102204.34;5056707;28;20036;-68
2022/05/07 09:16:48;;;;;;;27.08;15.90;;;;;;;21.59;44.42;102197.47;5059921;28;20050;-69
2022/05/07 09:19:41;;;;;;;21.37;15.10;;;;;;;21.80;43.55;102195.41;5068675;28;20052;-70
2022/05/07 09:22:11;;;;;;;26.50;15.95;;;;;;;21.91;43.96;102193.00;5050149;28;20267;-69
2022/05/07 09:24:39;;;;;;;22.00;15.75;;;;;;;21.95;43.83;102197.22;5058828;28;20517;-69
2022/05/07 09:27:16;;;;;;;22.33;15.73;;;;;;;21.89;42.91;102197.56;5058907;28;20051;-70
2022/05/07 09:29:43;;;;;;;23.00;16.75;;;;;;;21.72;43.40;102193.16;5069571;28;20045;-69
2022/05/07 09:32:16;;;;;;;23.70;16.20;;;;;;;21.60;43.38;102200.09;5058330;28;20037;-71
2022/05/07 09:37:39;;;;;;;22.25;15.07;;;;;;;21.29;43.55;102198.16;5058011;28;20183;-70
2022/05/07 09:40:11;;;;;;;18.30;11.27;;;;;;;21.27;43.10;102203.63;5066380;28;20072;-69
2022/05/07 09:42:41;;;;;;;18.30;12.40;;;;;;;21.16;42.26;102200.66;5068470;28;20037;-70
2022/05/07 09:45:11;;;;;;;19.58;12.30;;;;;;;21.18;42.43;102209.50;5059887;28;20037;-70
2022/05/07 09:47:39;;;;;;;19.35;10.90;;;;;;;21.24;41.09;102201.09;5068579;28;20042;-70
2022/05/07 09:50:20;;;;;;;18.77;11.40;;;;;;;21.32;40.87;102200.69;5068218;28;20047;-71
2022/05/07 09:58:21;;;;;;;17.85;12.50;;;;;;;;;;5066283;28;20106;-69
2022/05/07 10:01:49;;;;;;;20.05;13.27;;;;;;;22.40;39.92;102196.44;5058734;28;20943;-70
2022/05/07 10:04:28;;;;;;;21.17;13.38;;;;;;;22.61;39.75;102208.63;5062021;28;20067;-70
2022/05/07 10:07:18;;;;;;;25.08;14.07;;;;;;;22.84;39.36;102208.19;5062009;28;20111;-69
2022/05/07 10:10:28;;;;;;;32.88;15.10;;;;;;;23.02;38.72;102208.91;5062540;28;20450;-70
2022/05/07 10:13:05;;;;;;;27.45;15.75;;;;;;;23.08;38.65;102195.94;5066001;28;20045;-70
2022/05/07 10:15:32;;;;;;;24.05;14.35;;;;;;;23.01;38.53;102201.78;5058783;28;20042;-68
2022/05/07 10:18:08;;;;;;;22.63;15.10;;;;;;;22.83;38.85;102203.78;5064617;28;20049;-72
2022/05/07 10:20:43;;;;;;;26.58;15.20;;;;;;;22.98;39.22;102196.59;5055018;28;20041;-70
2022/05/07 10:23:13;;;;;;;22.45;14.80;;;;;;;23.32;38.45;102198.06;5048593;28;20033;-70
2022/05/07 10:25:54;;;;;;;21.13;14.48;;;;;;;23.67;37.92;102186.00;5047296;28;20080;-70
2022/05/07 10:28:21;;;;;;;19.33;13.73;;;;;;;23.95;36.08;102181.56;5054849;28;20041;-69
2022/05/07 10:30:52;;;;;;;24.98;13.95;;;;;;;23.96;35.98;102186.81;5050301;28;20033;-70
2022/05/07 10:33:21;;;;;;;23.00;14.52;;;;;;;24.20;36.94;102180.78;5047354;28;20907;-70
2022/05/07 10:35:55;;;;;;;26.48;14.13;;;;;;;24.47;36.44;102188.78;5050988;28;20037;-70
2022/05/07 10:38:27;;;;;;;20.85;14.57;;;;;;;24.72;35.69;102178.19;5057964;28;20048;-71
2022/05/07 10:40:58;;;;;;;20.40;13.57;;;;;;;24.61;35.49;102174.38;5057105;28;20084;-70
2022/05/07 10:43:33;;;;;;;21.55;12.63;;;;;;;24.89;35.21;102169.78;5054817;28;20037;-69
2022/05/07 10:46:06;;;;;;;23.80;14.57;;;;;;;24.90;33.87;102165.25;5054053;28;20124;-68
2022/05/07 10:48:57;;;;;;;21.45;14.02;;;;;;;24.53;35.10;102167.78;5060370;28;20045;-70
2022/05/07 10:51:32;;;;;;;21.85;14.85;;;;;;;24.01;35.78;102164.97;5059185;28;20047;-70
2022/05/07 10:54:14;;;;;;;21.23;15.00;;;;;;;23.67;36.62;102178.81;5062342;28;20045;-69
2022/05/07 10:56:48;;;;;;;21.80;15.18;;;;;;;23.63;37.13;102165.66;5065925;28;20047;-70
2022/05/07 10:59:16;;;;;;;23.48;14.45;;;;;;;23.68;36.94;102166.19;5062531;28;20642;-70
2022/05/07 11:01:43;;;;;;;20.60;13.43;;;;;;;24.27;35.83;102160.53;5070016;28;20049;-69
2022/05/07 11:04:13;;;;;;;19.42;13.38;;;;;;;24.69;35.13;102149.59;5068775;28;20041;-70
2022/05/07 11:06:43;;;;;;;22.95;14.05;;;;;;;25.05;34.56;102147.09;5070696;28;20073;-69
2022/05/07 11:09:18;;;;;;;19.25;14.55;;;;;;;25.07;34.05;102150.56;5066460;28;20045;-71
2022/05/07 11:11:51;;;;;;;22.48;14.30;;;;;;;24.51;34.86;102157.13;5054769;28;20037;-69
2022/05/07 11:14:32;;;;;;;20.58;13.80;;;;;;;24.02;34.55;102150.53;5060728;28;20489;-70
2022/05/07 11:17:04;;;;;;;22.52;12.95;;;;;;;23.66;34.89;102150.16;5054961;28;20041;-69
2022/05/07 11:19:34;;;;;;;20.08;13.65;;;;;;;23.83;34.67;102148.16;5048368;28;20057;-69
2022/05/07 11:22:08;;;;;;;18.38;11.75;;;;;;;24.21;33.81;102147.47;5058870;28;20098;-69
2022/05/07 11:24:37;;;;;;;16.10;10.48;;;;;;;24.44;33.00;102140.50;5051657;28;20045;-71
2022/05/07 11:27:06;;;;;;;16.67;11.20;;;;;;;24.54;33.40;102145.25;5059997;28;20045;-69
2022/05/07 11:29:36;;;;;;;20.17;11.35;;;;;;;24.78;33.02;102140.88;5061620;28;20034;-70
2022/05/07 11:32:12;;;;;;;16.42;10.52;;;;;;;25.26;33.73;102142.00;5062040;28;20037;-72
2022/05/07 11:34:41;;;;;;;13.73;10.07;;;;;;;25.62;33.02;102134.91;5048044;28;20136;-70
2022/05/07 11:37:23;;;;;;;18.05;9.90;;;;;;;25.91;30.55;102139.09;5059564;28;20896;-71
2022/05/07 11:39:55;;;;;;;15.63;9.52;;;;;;;26.17;30.73;102134.44;5059223;28;20422;-70
2022/05/07 11:42:29;;;;;;;16.58;10.52;;;;;;;26.32;29.98;102133.25;5068225;28;20156;-70
2022/05/07 11:45:27;;;;;;;31.30;10.55;;;;;;;26.07;31.19;102128.84;5061924;28;20044;-70
2022/05/07 11:47:58;;;;;;;16.90;10.55;;;;;;;25.51;31.09;102137.53;5058010;28;20063;-70
2022/05/07 11:50:31;;;;;;;20.00;10.30;;;;;;;24.97;31.91;102126.09;5066960;28;20041;-71
2022/05/07 11:53:17;;;;;;;14.00;9.20;;;;;;;24.85;32.83;102130.50;5062556;28;20030;-70
2022/05/07 11:55:46;;;;;;;21.73;10.75;;;;;;;24.86;32.88;102126.84;5052930;28;20051;-70
2022/05/07 11:58:23;;;;;;;18.08;10.35;;;;;;;24.47;33.38;102126.81;5063508;28;20049;-70
2022/05/07 12:00:57;;;;;;;15.52;10.50;;;;;;;24.17;33.44;102135.19;5050970;28;20053;-70